Aérodrome :
LOGIN :

S'inscrire | Disclaimer

   EN    FR    IT 

 










Légende :    VFR   VFR Marginal   IFR   IFR Intensif   IFR Très Intensif
Visi : 
Plafond : 
>= 8 km
>= 3000ft
5 à 8 km
1000 à 3000 ft
1500m à 5 km
500 à 1000 ft
800 à 1500m
200 à 500 ft
< 800m
< 200 ft
Symboles :   Orages  Brouillard  Fortes neiges  Fortes précipitations  Vent > 20 kt
SIGMETs :   Divers  Orages  Givrage  Turbulence  Onde Orograph.  Cendres Volcan.







- Altitude de l'aérodrome : 1302 ft
- Code IATA : GNB
- Voir les cartes d'approche


LFLS - Grenoble / St. Geoirs

DERNIER METAR :
  • 190500Z AUTO 10004KT 030V150 9999 NCD 01/M00 Q1023 TEMPO 0800 FG OVC003

METARs EXPIRÉS :
  • 190430Z AUTO VRB03KT 9999 NCD M00/M01 Q1022 TEMPO 0800 FG OVC003
  • 190400Z AUTO 22003KT 190V260 9999 NCD 00/M01 Q1022 TEMPO 0800 FG OVC003
  • 190330Z AUTO 35003KT 290V010 CAVOK 01/M02 Q1022 TEMPO 0800 FG OVC003
  • 190300Z AUTO VRB03KT 9999 NCD 02/M00 Q1022 TEMPO 0800 FG OVC003
  • 190230Z AUTO VRB01KT CAVOK M00/M03 Q1022 TEMPO 0800 FG OVC003

TAF TAF LFLS
Valide du 19 à 03h jusqu'au 20 à 03h UTC


190200Z 1903/2003 36008KT CAVOK
PROB30
TEMPO 1904/1907 0800 FG OVC003
BECMG 1909/1911 34010KT
BECMG 1918/1921 VRB03KT
ATIS : +33 4 76 65 55 89
Pas de NOTAMs connus pour ce terrain.



MET'MAP, la Météo Aéronautique d'un coup d'oeil ! - Copyright ORBIFLY Décembre 2007 - Disclaimer

ORBIFLY MET'MAP TEAM :

Programmation & Développement : Alexandra Zaïnal
Conception & Développement : Baudouin d'Aumeries
Co-Programmation & Développement : Marc-Olivier Méhu
Soutien technique & logistique : Manuel Goepfert

Contact : metmap@orbifly.com




SOURCES & CREDITS :

   NOAA